Time;durP1;ratioP1;P1;durP2;ratioP2;P2;SDS_P1;SDS_P2;PMS_P1;PMS_P2;Temp;Humidity;BMP_temperature;BMP_pressure;BME280_temperature;BME280_humidity;BME280_pressure;Samples;Min_cycle;Max_cycle;Signal;HPM_P1;HPM_P2
2022/05/29 00:01:36;;;;;;;6.13;2.38;;;;;;;;;;5055990;28;20206;-68
2022/05/29 00:04:03;;;;;;;6.78;2.80;;;;;;;;;;5055876;28;20209;-68
2022/05/29 00:06:31;;;;;;;5.70;2.80;;;;;;;;;;5056079;28;20662;-68
2022/05/29 00:08:58;;;;;;;8.38;2.80;;;;;;;;;;5055662;28;20190;-68
2022/05/29 00:11:25;;;;;;;7.53;2.70;;;;;;;;;;5055782;28;20202;-68
2022/05/29 00:13:53;;;;;;;7.22;3.78;;;;;;;;;;5055718;28;20220;-68
2022/05/29 00:16:20;;;;;;;7.35;2.95;;;;;;;;;;5055667;28;20217;-68
2022/05/29 00:18:48;;;;;;;7.18;2.83;;;;;;;;;;5055482;28;20206;-68
2022/05/29 00:21:15;;;;;;;6.15;2.95;;;;;;;;;;5055556;28;20195;-67
2022/05/29 00:23:44;;;;;;;9.25;2.90;;;;;;;;;;5055411;28;20209;-67
2022/05/29 00:26:11;;;;;;;8.15;3.67;;;;;;;;;;5055417;28;20207;-67
2022/05/29 00:28:39;;;;;;;4.72;2.63;;;;;;;;;;5054989;28;20288;-67
2022/05/29 00:31:06;;;;;;;4.30;2.78;;;;;;;;;;5055451;28;20545;-68
2022/05/29 00:33:34;;;;;;;7.57;3.33;;;;;;;;;;5055038;28;20244;-68
2022/05/29 00:36:02;;;;;;;4.05;2.83;;;;;;;;;;5054330;28;20231;-67
2022/05/29 00:38:30;;;;;;;16.58;3.72;;;;;;;;;;5055315;28;20205;-68
2022/05/29 00:41:01;;;;;;;8.15;2.95;;;;;;;;;;5054894;28;20203;-68
2022/05/29 00:43:28;;;;;;;9.02;3.47;;;;;;;;;;5055252;28;20212;-68
2022/05/29 00:45:57;;;;;;;7.72;3.25;;;;;;;;;;5054796;28;20198;-68
2022/05/29 00:48:25;;;;;;;4.63;3.45;;;;;;;;;;5054625;28;20659;-68
2022/05/29 00:50:55;;;;;;;11.73;3.88;;;;;;;;;;5054629;28;20202;-68
2022/05/29 00:53:24;;;;;;;5.90;3.22;;;;;;;;;;5055186;28;20214;-68
2022/05/29 00:55:53;;;;;;;7.18;2.72;;;;;;;;;;5054887;28;20198;-68
2022/05/29 00:58:22;;;;;;;13.20;3.00;;;;;;;;;;5054440;28;20194;-68
2022/05/29 01:00:49;;;;;;;5.00;2.88;;;;;;;;;;5054794;28;20201;-69
2022/05/29 01:03:17;;;;;;;12.77;3.25;;;;;;;;;;5054628;28;20195;-67
2022/05/29 01:05:44;;;;;;;9.65;4.00;;;;;;;;;;5055590;28;20578;-68
2022/05/29 01:08:13;;;;;;;8.20;3.63;;;;;;;;;;5054694;28;20198;-67
2022/05/29 01:10:57;;;;;;;7.43;3.33;;;;;;;;;;5054593;28;20198;-68
2022/05/29 01:13:31;;;;;;;7.38;2.88;;;;;;;;;;5054740;28;20545;-68
2022/05/29 01:16:02;;;;;;;6.97;3.00;;;;;;;;;;5054787;28;20669;-68
2022/05/29 01:18:34;;;;;;;3.70;2.50;;;;;;;;;;5054125;28;20185;-68
2022/05/29 01:21:20;;;;;;;7.63;2.97;;;;;;;;;;5054560;28;20190;-68
2022/05/29 01:23:58;;;;;;;7.45;3.33;;;;;;;;;;5053883;28;20671;-68
2022/05/29 01:26:57;;;;;;;6.55;3.47;;;;;;;;;;5054467;28;20187;-69
2022/05/29 01:29:32;;;;;;;7.27;3.80;;;;;;;;;;5054192;28;20639;-68
2022/05/29 01:32:02;;;;;;;7.10;4.47;;;;;;;;;;5054703;28;20435;-69
2022/05/29 01:34:30;;;;;;;11.65;5.38;;;;;;;;;;5054272;28;20328;-68
2022/05/29 01:37:05;;;;;;;9.95;3.00;;;;;;;;;;5053900;28;20234;-67
2022/05/29 01:39:34;;;;;;;9.27;3.20;;;;;;;;;;5054064;28;20201;-68
2022/05/29 01:42:05;;;;;;;14.25;3.92;;;;;;;;;;5054009;28;20293;-68
2022/05/29 01:44:38;;;;;;;10.30;3.28;;;;;;;;;;5054088;28;20197;-67
2022/05/29 01:47:09;;;;;;;7.63;3.55;;;;;;;;;;5054168;28;20186;-68
2022/05/29 01:49:38;;;;;;;7.70;3.88;;;;;;;;;;5054277;28;20591;-68
2022/05/29 01:52:07;;;;;;;7.72;3.30;;;;;;;;;;5054099;28;20200;-68
2022/05/29 01:54:37;;;;;;;7.65;3.92;;;;;;;;;;5053354;28;20219;-68
2022/05/29 01:57:07;;;;;;;6.43;3.30;;;;;;;;;;5054406;28;20221;-68
2022/05/29 01:59:38;;;;;;;8.25;4.22;;;;;;;;;;5053898;28;20199;-67
2022/05/29 02:02:06;;;;;;;8.38;3.72;;;;;;;;;;5053435;28;20190;-67
2022/05/29 02:04:35;;;;;;;5.63;2.70;;;;;;;;;;5053588;28;20557;-68
2022/05/29 02:09:52;;;;;;;12.82;4.10;;;;;;;;;;5053448;28;20185;-68
2022/05/29 02:12:21;;;;;;;5.75;3.42;;;;;;;;;;5053610;28;20209;-67
2022/05/29 02:14:51;;;;;;;6.63;3.00;;;;;;;;;;5053134;28;20308;-68
2022/05/29 02:17:20;;;;;;;7.28;4.28;;;;;;;;;;5054014;28;20213;-68
2022/05/29 02:19:50;;;;;;;11.02;4.45;;;;;;;;;;5053429;28;20197;-67
2022/05/29 02:22:19;;;;;;;6.97;4.40;;;;;;;;;;5053609;28;20623;-67
2022/05/29 02:24:49;;;;;;;5.80;2.95;;;;;;;;;;5053120;28;20291;-68
2022/05/29 02:27:19;;;;;;;7.38;4.88;;;;;;;;;;5053160;28;20734;-68
2022/05/29 02:29:47;;;;;;;5.53;3.35;;;;;;;;;;5053351;28;20201;-67
2022/05/29 02:32:19;;;;;;;6.57;4.00;;;;;;;;;;5053461;28;20196;-67
2022/05/29 02:34:52;;;;;;;4.78;4.32;;;;;;;;;;5053334;28;20324;-68
2022/05/29 02:37:24;;;;;;;7.88;3.92;;;;;;;;;;5053097;28;20315;-68
2022/05/29 02:39:55;;;;;;;5.10;3.65;;;;;;;;;;5053332;28;20187;-67
2022/05/29 02:42:27;;;;;;;9.82;3.75;;;;;;;;;;5053951;28;20190;-67
2022/05/29 02:45:00;;;;;;;7.43;3.70;;;;;;;;;;5053259;28;20185;-67
2022/05/29 02:47:33;;;;;;;8.70;4.63;;;;;;;;;;5053460;28;20190;-67
2022/05/29 02:50:13;;;;;;;8.57;4.57;;;;;;;;;;5053200;28;20191;-67
2022/05/29 02:52:40;;;;;;;6.32;4.20;;;;;;;;;;5053508;28;20200;-67
2022/05/29 02:55:07;;;;;;;6.50;4.07;;;;;;;;;;5053180;28;20671;-67
2022/05/29 02:57:35;;;;;;;7.43;4.32;;;;;;;;;;5053578;28;20651;-67
2022/05/29 03:00:07;;;;;;;9.25;4.68;;;;;;;;;;5057001;28;20561;-68
2022/05/29 03:02:39;;;;;;;11.13;5.13;;;;;;;;;;5056971;28;20190;-68
2022/05/29 03:05:12;;;;;;;10.68;4.30;;;;;;;;;;5056807;28;20200;-68
2022/05/29 03:07:44;;;;;;;12.38;5.15;;;;;;;;;;5056692;28;20186;-68
2022/05/29 03:10:14;;;;;;;9.77;4.20;;;;;;;;;;5057226;28;20189;-68
2022/05/29 03:12:46;;;;;;;6.13;3.80;;;;;;;;;;5057212;28;20198;-68
2022/05/29 03:15:18;;;;;;;11.82;4.78;;;;;;;;;;5056397;28;20211;-68
2022/05/29 03:17:51;;;;;;;9.68;4.72;;;;;;;;;;5056837;28;20549;-68
2022/05/29 03:20:22;;;;;;;5.95;4.53;;;;;;;;;;5056253;28;20182;-68
2022/05/29 03:22:54;;;;;;;9.02;4.25;;;;;;;;;;5056711;28;20193;-68
2022/05/29 03:25:25;;;;;;;7.22;4.13;;;;;;;;;;5056175;28;20285;-67
2022/05/29 03:27:53;;;;;;;9.05;4.43;;;;;;;;;;5056537;28;20283;-68
2022/05/29 03:30:22;;;;;;;7.20;4.38;;;;;;;;;;5055990;28;20288;-67
2022/05/29 03:32:51;;;;;;;9.85;4.72;;;;;;;;;;5056325;28;20203;-68
2022/05/29 03:35:20;;;;;;;9.82;4.80;;;;;;;;;;5056102;28;20336;-67
2022/05/29 03:37:48;;;;;;;8.57;4.25;;;;;;;;;;5057016;28;20192;-68
2022/05/29 03:40:15;;;;;;;7.00;3.88;;;;;;;;;;5056120;28;20197;-68
2022/05/29 03:42:43;;;;;;;14.77;4.97;;;;;;;;;;5055804;28;20193;-68
2022/05/29 03:45:10;;;;;;;8.38;4.90;;;;;;;;;;5056207;28;20220;-67
2022/05/29 03:47:38;;;;;;;10.20;4.55;;;;;;;;;;5056102;28;20191;-67
2022/05/29 03:50:07;;;;;;;12.40;4.70;;;;;;;;;;5056221;28;20196;-67
2022/05/29 03:52:35;;;;;;;11.57;5.05;;;;;;;;;;5055855;28;20205;-65
2022/05/29 03:55:03;;;;;;;5.88;4.38;;;;;;;;;;5055983;28;20228;-68
2022/05/29 03:57:30;;;;;;;10.73;5.93;;;;;;;;;;5055841;28;20198;-68
2022/05/29 03:59:57;;;;;;;8.00;5.13;;;;;;;;;;5056029;28;20209;-68
2022/05/29 04:02:25;;;;;;;8.25;5.28;;;;;;;;;;5055679;28;20289;-66
2022/05/29 04:04:52;;;;;;;9.73;5.13;;;;;;;;;;5035932;28;20559;-68
2022/05/29 04:12:03;;;;;;;9.13;5.45;;;;;;;;;;5035736;28;20195;-68
2022/05/29 04:12:53;;;;;;;9.43;4.85;;;;;;;;;;5035444;28;20268;-68
2022/05/29 04:15:20;;;;;;;12.50;5.43;;;;;;;;;;5035537;28;20311;-68
2022/05/29 04:17:47;;;;;;;9.15;4.70;;;;;;;;;;5035260;28;20195;-68
2022/05/29 04:20:15;;;;;;;8.60;4.72;;;;;;;;;;5035254;28;20201;-68
2022/05/29 04:22:43;;;;;;;12.65;4.90;;;;;;;;;;5035373;28;20601;-68
2022/05/29 04:25:11;;;;;;;11.13;5.20;;;;;;;;;;5035780;28;20564;-68
2022/05/29 04:27:38;;;;;;;7.10;5.00;;;;;;;;;;5034915;28;20651;-68
2022/05/29 04:30:06;;;;;;;10.48;5.30;;;;;;;;;;5035331;28;20648;-68
2022/05/29 04:35:18;;;;;;;10.07;4.68;;;;;;;;;;5054770;28;20696;-68
2022/05/29 04:37:48;;;;;;;9.90;5.60;;;;;;;;;;5054738;28;20192;-68
2022/05/29 04:40:16;;;;;;;4.35;3.80;;;;;;;;;;5055272;28;20273;-68
2022/05/29 04:42:43;;;;;;;4.47;4.05;;;;;;;;;;5055087;28;20198;-68
2022/05/29 04:45:11;;;;;;;8.20;5.00;;;;;;;;;;5055047;28;20224;-68
2022/05/29 04:47:38;;;;;;;10.30;6.47;;;;;;;;;;5054847;28;20551;-69
2022/05/29 04:50:06;;;;;;;7.35;5.20;;;;;;;;;;5054618;28;20196;-68
2022/05/29 04:52:34;;;;;;;7.90;4.88;;;;;;;;;;5054827;28;20264;-68
2022/05/29 04:55:03;;;;;;;10.48;4.80;;;;;;;;;;5054453;28;20706;-68
2022/05/29 04:57:30;;;;;;;7.53;5.03;;;;;;;;;;5054713;28;20661;-68
2022/05/29 04:59:58;;;;;;;6.43;4.65;;;;;;;;;;5054699;28;20205;-68
2022/05/29 05:02:25;;;;;;;6.15;5.55;;;;;;;;;;5054482;28;20198;-67
2022/05/29 05:04:52;;;;;;;8.23;4.72;;;;;;;;;;5054558;28;20297;-68
2022/05/29 05:07:20;;;;;;;10.52;4.57;;;;;;;;;;5054160;28;20197;-68
2022/05/29 05:09:48;;;;;;;8.75;4.85;;;;;;;;;;5054208;28;20288;-68
2022/05/29 05:12:16;;;;;;;6.38;5.22;;;;;;;;;;5054352;28;20252;-68
2022/05/29 05:14:44;;;;;;;7.20;4.40;;;;;;;;;;5054313;28;20197;-68
2022/05/29 05:17:11;;;;;;;6.10;4.70;;;;;;;;;;5053970;28;20203;-67
2022/05/29 05:19:39;;;;;;;11.13;5.82;;;;;;;;;;5053623;28;20197;-66
2022/05/29 05:22:08;;;;;;;7.40;5.10;;;;;;;;;;5053324;28;20220;-68
2022/05/29 05:24:37;;;;;;;7.53;4.70;;;;;;;;;;5053786;28;20206;-67
2022/05/29 05:27:04;;;;;;;5.43;4.73;;;;;;;;;;5054444;28;20203;-67
2022/05/29 05:29:33;;;;;;;8.40;4.50;;;;;;;;;;5054159;28;20452;-67
2022/05/29 05:32:00;;;;;;;10.32;5.00;;;;;;;;;;5054038;28;20198;-67
2022/05/29 05:34:28;;;;;;;5.15;4.65;;;;;;;;;;5053884;28;20197;-67
2022/05/29 05:36:55;;;;;;;7.95;4.78;;;;;;;;;;5054014;28;20239;-67
2022/05/29 05:39:22;;;;;;;13.18;4.82;;;;;;;;;;5053825;28;20205;-68
2022/05/29 05:41:50;;;;;;;7.90;4.97;;;;;;;;;;5053566;28;20191;-67
2022/05/29 05:44:17;;;;;;;8.18;3.70;;;;;;;;;;5053934;28;20195;-68
2022/05/29 05:46:46;;;;;;;9.27;4.97;;;;;;;;;;5053456;28;20216;-68
2022/05/29 05:49:14;;;;;;;6.22;4.30;;;;;;;;;;5053298;28;20199;-67
2022/05/29 05:51:41;;;;;;;5.43;4.43;;;;;;;;;;5053910;28;20195;-67
2022/05/29 05:54:08;;;;;;;6.55;5.07;;;;;;;;;;5053682;28;20232;-68
2022/05/29 05:56:36;;;;;;;8.73;7.27;;;;;;;;;;5054045;28;20215;-68
2022/05/29 05:59:03;;;;;;;6.72;4.10;;;;;;;;;;5053497;28;20456;-67
2022/05/29 06:01:30;;;;;;;8.85;4.53;;;;;;;;;;5053334;28;20197;-68
2022/05/29 06:03:59;;;;;;;11.65;4.78;;;;;;;;;;5053422;28;20563;-67
2022/05/29 06:06:26;;;;;;;10.10;5.13;;;;;;;;;;5053821;28;20205;-68
2022/05/29 06:08:53;;;;;;;9.82;5.30;;;;;;;;;;5053461;28;20202;-66
2022/05/29 06:11:21;;;;;;;10.50;4.37;;;;;;;;;;5053160;28;20668;-67
2022/05/29 06:13:48;;;;;;;8.35;5.18;;;;;;;;;;5053013;28;20532;-66
2022/05/29 06:16:15;;;;;;;7.87;4.20;;;;;;;;;;5053249;28;20214;-67
2022/05/29 06:18:42;;;;;;;6.93;3.97;;;;;;;;;;5053297;28;20528;-67
2022/05/29 06:21:11;;;;;;;9.70;4.67;;;;;;;;;;5053399;28;20791;-67
2022/05/29 06:23:39;;;;;;;9.80;4.13;;;;;;;;;;5053234;28;20449;-66
2022/05/29 06:26:07;;;;;;;10.30;4.80;;;;;;;;;;5053017;28;20961;-66
2022/05/29 06:28:35;;;;;;;6.22;4.75;;;;;;;;;;5053225;28;20887;-66
2022/05/29 06:31:03;;;;;;;11.75;5.47;;;;;;;;;;5053048;28;20201;-66
2022/05/29 06:33:31;;;;;;;7.25;4.95;;;;;;;;;;5055399;28;20200;-66
2022/05/29 06:36:07;;;;;;;6.57;4.07;;;;;;;;;;5057297;28;20281;-71
2022/05/29 06:38:36;;;;;;;7.55;4.65;;;;;;;;;;5057402;28;20191;-64
2022/05/29 06:41:05;;;;;;;7.97;3.97;;;;;;;;;;5057326;28;20199;-65
2022/05/29 06:43:33;;;;;;;5.55;3.83;;;;;;;;;;5056862;28;20292;-65
2022/05/29 06:46:00;;;;;;;4.70;4.00;;;;;;;;;;5056899;28;20663;-65
2022/05/29 06:48:28;;;;;;;7.47;4.22;;;;;;;;;;5056891;28;20198;-66
2022/05/29 06:50:55;;;;;;;10.98;4.05;;;;;;;;;;5057870;28;20195;-67
2022/05/29 06:53:23;;;;;;;4.95;3.88;;;;;;;;;;5057032;28;20252;-67
2022/05/29 06:55:55;;;;;;;9.60;4.80;;;;;;;;;;5056975;28;20229;-67
2022/05/29 06:58:23;;;;;;;9.23;4.38;;;;;;;;;;5056953;28;20452;-68
2022/05/29 07:09:05;;;;;;;9.55;4.40;;;;;;;;;;5056596;28;20445;-68
2022/05/29 07:11:35;;;;;;;6.40;4.13;;;;;;;;;;5056759;28;20202;-67
2022/05/29 07:14:04;;;;;;;8.70;3.70;;;;;;;;;;5056369;28;20656;-67
2022/05/29 07:16:31;;;;;;;7.93;4.50;;;;;;;;;;5056232;28;20477;-67
2022/05/29 07:18:59;;;;;;;9.02;3.67;;;;;;;;;;5056567;28;20857;-68
2022/05/29 07:21:26;;;;;;;5.30;4.80;;;;;;;;;;5056589;28;20217;-67
2022/05/29 07:23:53;;;;;;;7.50;4.20;;;;;;;;;;5056462;28;20802;-67
2022/05/29 07:26:21;;;;;;;5.70;4.50;;;;;;;;;;5056473;28;20445;-67
2022/05/29 07:28:50;;;;;;;8.87;4.10;;;;;;;;;;5056216;28;20459;-67
2022/05/29 07:31:17;;;;;;;11.50;4.87;;;;;;;;;;5056335;28;20784;-67
2022/05/29 07:33:44;;;;;;;11.63;3.80;;;;;;;;;;5056122;28;20445;-67
2022/05/29 07:36:12;;;;;;;9.07;3.80;;;;;;;;;;5056522;28;20488;-68
2022/05/29 07:38:40;;;;;;;6.20;3.20;;;;;;;;;;5055878;28;20448;-67
2022/05/29 07:43:49;;;;;;;6.87;3.40;;;;;;;;;;5055394;28;20474;-67
2022/05/29 07:46:17;;;;;;;5.70;4.00;;;;;;;;;;5056196;28;20441;-67
2022/05/29 07:48:44;;;;;;;4.17;3.40;;;;;;;;;;5056110;28;20463;-66
2022/05/29 07:51:11;;;;;;;9.30;4.07;;;;;;;;;;5055720;28;20458;-68
2022/05/29 07:53:39;;;;;;;10.90;3.90;;;;;;;;;;5055603;28;20504;-67
2022/05/29 07:56:07;;;;;;;6.50;4.70;;;;;;;;;;5055811;28;20505;-68
2022/05/29 07:58:38;;;;;;;8.60;4.27;;;;;;;;;;5056111;28;21000;-67
2022/05/29 08:01:06;;;;;;;7.77;4.27;;;;;;;;;;5044466;28;20430;-67
2022/05/29 08:03:33;;;;;;;10.00;3.97;;;;;;;;;;5036413;28;20528;-67
2022/05/29 08:06:01;;;;;;;7.33;3.40;;;;;;;;;;5036051;28;20462;-68
2022/05/29 08:08:29;;;;;;;11.10;3.90;;;;;;;;;;5035448;28;20448;-68
2022/05/29 08:10:57;;;;;;;5.83;3.30;;;;;;;;;;5035740;28;20470;-67
2022/05/29 08:13:25;;;;;;;6.00;3.23;;;;;;;;;;5035644;28;20442;-67
2022/05/29 08:15:52;;;;;;;6.00;3.67;;;;;;;;;;5035453;28;20474;-67
2022/05/29 08:18:21;;;;;;;7.87;4.03;;;;;;;;;;5035611;28;20442;-67
2022/05/29 08:20:48;;;;;;;7.43;3.30;;;;;;;;;;5034813;28;20463;-67
2022/05/29 08:23:15;;;;;;;7.90;3.20;;;;;;;;;;5035623;28;20807;-68
2022/05/29 08:31:12;;;;;;;6.00;2.70;;;;;;;;;;5034953;28;20418;-68
2022/05/29 08:33:43;;;;;;;5.83;3.27;;;;;;;;;;5035800;28;20438;-67
2022/05/29 08:36:12;;;;;;;5.60;3.17;;;;;;;;;;5034726;28;21061;-67
2022/05/29 08:38:40;;;;;;;4.80;2.73;;;;;;;;;;5035190;28;20438;-68
2022/05/29 08:41:08;;;;;;;5.30;2.27;;;;;;;;;;5035147;28;20445;-68
2022/05/29 08:43:36;;;;;;;4.00;2.03;;;;;;;;;;5035305;28;20450;-67
2022/05/29 08:46:06;;;;;;;12.40;2.87;;;;;;;;;;5034971;28;20534;-68
2022/05/29 08:48:34;;;;;;;4.50;2.33;;;;;;;;;;5034340;28;20457;-68
2022/05/29 08:51:07;;;;;;;6.53;2.50;;;;;;;;;;5034570;28;20951;-68
2022/05/29 08:53:36;;;;;;;7.67;3.10;;;;;;;;;;5034674;28;20525;-68
2022/05/29 08:56:07;;;;;;;3.00;2.30;;;;;;;;;;5034050;28;20814;-68
2022/05/29 08:58:38;;;;;;;9.73;2.70;;;;;;;;;;5034610;28;20441;-67
2022/05/29 09:01:12;;;;;;;3.40;2.10;;;;;;;;;;5035034;28;20438;-68
2022/05/29 09:03:48;;;;;;;2.47;2.20;;;;;;;;;;5034502;28;20437;-68
2022/05/29 09:06:18;;;;;;;3.77;2.70;;;;;;;;;;5034383;28;20817;-67
2022/05/29 09:08:48;;;;;;;4.50;2.70;;;;;;;;;;5034894;28;20522;-68
2022/05/29 09:11:18;;;;;;;4.70;2.40;;;;;;;;;;5034504;28;20446;-68
2022/05/29 09:13:47;;;;;;;4.80;2.57;;;;;;;;;;5034202;28;20940;-68
2022/05/29 09:16:15;;;;;;;6.53;2.50;;;;;;;;;;5034510;28;20916;-67
2022/05/29 09:18:44;;;;;;;9.83;2.70;;;;;;;;;;5034902;28;20444;-69
2022/05/29 09:21:13;;;;;;;6.40;2.53;;;;;;;;;;5034267;28;20451;-68
2022/05/29 09:23:44;;;;;;;7.23;3.00;;;;;;;;;;5034296;28;20451;-69
2022/05/29 09:26:14;;;;;;;4.93;2.80;;;;;;;;;;5034299;28;20449;-69
2022/05/29 09:28:43;;;;;;;8.10;2.77;;;;;;;;;;5034115;28;20541;-69
2022/05/29 09:31:11;;;;;;;9.47;2.93;;;;;;;;;;5033844;28;20466;-68
2022/05/29 09:33:39;;;;;;;6.73;2.07;;;;;;;;;;5034676;28;20804;-69
2022/05/29 09:36:10;;;;;;;4.87;2.90;;;;;;;;;;5033711;28;20490;-70
2022/05/29 09:38:41;;;;;;;8.73;3.67;;;;;;;;;;5033839;28;20524;-68
2022/05/29 09:41:12;;;;;;;8.20;2.60;;;;;;;;;;5033732;28;20442;-69
2022/05/29 09:43:39;;;;;;;5.90;2.60;;;;;;;;;;5034495;28;20429;-69
2022/05/29 09:46:19;;;;;;;4.43;2.13;;;;;;;;;;5033947;28;20432;-68
2022/05/29 09:51:43;;;;;;;5.73;2.20;;;;;;;;;;5033720;28;20411;-70
2022/05/29 09:54:15;;;;;;;2.23;1.77;;;;;;;;;;5033594;28;20466;-70
2022/05/29 09:56:44;;;;;;;5.47;2.37;;;;;;;;;;5033954;28;20499;-70
2022/05/29 09:59:14;;;;;;;8.80;2.60;;;;;;;;;;5034175;28;20443;-68
2022/05/29 10:01:45;;;;;;;8.93;1.93;;;;;;;;;;5033446;28;20435;-69
2022/05/29 10:04:14;;;;;;;4.50;2.30;;;;;;;;;;5033901;28;20415;-70
2022/05/29 10:06:42;;;;;;;10.23;3.03;;;;;;;;;;5033864;28;20446;-67
2022/05/29 10:09:15;;;;;;;6.73;2.77;;;;;;;;;;5033282;28;20503;-67
2022/05/29 10:11:45;;;;;;;4.93;2.07;;;;;;;;;;5033923;28;20794;-67
2022/05/29 10:14:35;;;;;;;7.23;2.20;;;;;;;;;;5033561;28;20856;-67
2022/05/29 10:17:02;;;;;;;5.37;2.20;;;;;;;;;;5033010;28;20466;-68
2022/05/29 10:19:34;;;;;;;6.20;3.37;;;;;;;;;;5033904;28;20480;-67
2022/05/29 10:22:03;;;;;;;7.03;2.13;;;;;;;;;;5033263;28;20994;-67
2022/05/29 10:24:36;;;;;;;3.93;1.70;;;;;;;;;;5034283;28;20438;-68
2022/05/29 10:27:07;;;;;;;2.43;2.10;;;;;;;;;;5033487;28;20434;-68
2022/05/29 10:29:36;;;;;;;2.97;1.67;;;;;;;;;;5032840;28;20443;-68
2022/05/29 10:32:06;;;;;;;1.90;1.70;;;;;;;;;;5033582;28;20521;-69
2022/05/29 10:34:34;;;;;;;1.80;1.47;;;;;;;;;;5033257;28;20972;-68
2022/05/29 10:37:03;;;;;;;5.47;1.90;;;;;;;;;;5033209;28;20499;-68
2022/05/29 10:39:32;;;;;;;10.63;2.20;;;;;;;;;;5032951;28;20439;-68
2022/05/29 10:41:59;;;;;;;6.83;2.63;;;;;;;;;;5032828;28;20443;-68
2022/05/29 10:44:40;;;;;;;3.20;2.00;;;;;;;;;;5033255;28;20461;-68
2022/05/29 10:47:09;;;;;;;7.83;2.23;;;;;;;;;;5033396;28;20479;-67
2022/05/29 10:49:39;;;;;;;2.00;1.80;;;;;;;;;;5033213;28;20444;-68
2022/05/29 10:52:21;;;;;;;4.00;2.10;;;;;;;;;;5033149;28;20467;-68
2022/05/29 10:55:15;;;;;;;4.87;2.00;;;;;;;;;;5031225;28;20453;-68
2022/05/29 10:57:57;;;;;;;6.00;2.27;;;;;;;;;;4997734;28;20487;-68
2022/05/29 11:00:31;;;;;;;6.80;2.20;;;;;;;;;;5030609;28;20529;-68
2022/05/29 11:03:29;;;;;;;10.13;2.23;;;;;;;;;;5033219;28;20827;-69
2022/05/29 11:06:03;;;;;;;3.33;2.17;;;;;;;;;;5032701;28;20976;-68
2022/05/29 11:08:35;;;;;;;6.67;2.17;;;;;;;;;;5033055;28;20447;-68
2022/05/29 11:11:11;;;;;;;5.50;2.10;;;;;;;;;;5033418;28;20454;-68
2022/05/29 11:13:53;;;;;;;7.00;2.17;;;;;;;;;;5032984;28;20424;-68
2022/05/29 11:16:25;;;;;;;5.80;2.03;;;;;;;;;;5020950;28;20985;-67
2022/05/29 11:19:04;;;;;;;4.13;2.00;;;;;;;;;;5034193;28;20478;-69
2022/05/29 11:21:36;;;;;;;5.30;1.60;;;;;;;;;;5036850;28;20457;-68
2022/05/29 11:24:18;;;;;;;2.83;1.87;;;;;;;;;;5036721;28;20429;-68
2022/05/29 11:26:50;;;;;;;2.80;1.53;;;;;;;;;;5034299;28;20538;-68
2022/05/29 11:29:27;;;;;;;5.13;1.90;;;;;;;;;;5037002;28;20464;-69
2022/05/29 11:32:02;;;;;;;4.90;2.03;;;;;;;;;;5036067;28;20437;-68
2022/05/29 11:34:35;;;;;;;4.70;2.20;;;;;;;;;;5036477;28;20458;-68
2022/05/29 11:37:13;;;;;;;5.20;2.47;;;;;;;;;;5036585;28;20487;-68
2022/05/29 11:39:42;;;;;;;2.90;1.93;;;;;;;;;;5036344;28;20440;-69
2022/05/29 11:42:12;;;;;;;4.03;1.80;;;;;;;;;;5035889;28;20534;-68
2022/05/29 11:44:43;;;;;;;7.60;1.93;;;;;;;;;;5036209;28;20447;-68
2022/05/29 11:52:51;;;;;;;6.20;1.97;;;;;;;;;;5036001;28;20401;-68
2022/05/29 11:55:19;;;;;;;3.10;2.17;;;;;;;;;;5035876;28;20918;-68
2022/05/29 11:57:49;;;;;;;7.23;2.60;;;;;;;;;;5035589;28;20495;-68
2022/05/29 12:00:21;;;;;;;4.40;2.20;;;;;;;;;;5035993;28;20860;-68
2022/05/29 12:02:56;;;;;;;3.83;1.80;;;;;;;;;;5035928;28;20439;-67
2022/05/29 12:05:28;;;;;;;9.00;2.10;;;;;;;;;;5049504;28;20456;-67
2022/05/29 12:07:57;;;;;;;5.30;2.80;;;;;;;;;;5055383;28;20441;-68
2022/05/29 12:10:26;;;;;;;8.20;2.60;;;;;;;;;;5056016;28;20439;-67
2022/05/29 12:12:58;;;;;;;5.97;2.80;;;;;;;;;;5055398;28;20446;-68
2022/05/29 12:15:25;;;;;;;6.90;2.43;;;;;;;;;;5055915;28;20903;-68
2022/05/29 12:17:56;;;;;;;8.63;3.13;;;;;;;;;;5055355;28;20488;-68
2022/05/29 12:20:28;;;;;;;8.37;2.07;;;;;;;;;;5055270;28;20427;-67
2022/05/29 12:22:56;;;;;;;5.60;1.80;;;;;;;;;;5055806;28;20509;-68
2022/05/29 12:25:28;;;;;;;8.00;2.30;;;;;;;;;;5055339;28;20941;-67
2022/05/29 12:27:56;;;;;;;4.10;1.70;;;;;;;;;;5055013;28;20440;-67
2022/05/29 12:30:26;;;;;;;5.10;2.30;;;;;;;;;;5054104;28;20466;-68
2022/05/29 12:32:54;;;;;;;7.73;1.80;;;;;;;;;;5055644;28;20445;-68
2022/05/29 12:35:23;;;;;;;4.43;1.70;;;;;;;;;;5054830;28;20473;-67
2022/05/29 12:37:58;;;;;;;9.53;1.70;;;;;;;;;;5055096;28;20551;-67
2022/05/29 12:40:46;;;;;;;3.83;1.87;;;;;;;;;;5055538;28;20441;-68
2022/05/29 12:43:27;;;;;;;7.10;1.87;;;;;;;;;;5050238;28;20525;-68
2022/05/29 12:46:00;;;;;;;3.67;2.23;;;;;;;;;;5054741;28;20430;-68
2022/05/29 12:48:58;;;;;;;6.13;2.40;;;;;;;;;;5054818;28;20446;-69
2022/05/29 12:51:39;;;;;;;4.60;2.20;;;;;;;;;;5055101;28;20423;-68
2022/05/29 12:54:20;;;;;;;5.40;2.27;;;;;;;;;;5054458;28;20440;-69
2022/05/29 12:56:58;;;;;;;3.00;1.83;;;;;;;;;;5054515;28;20433;-70
2022/05/29 12:59:44;;;;;;;3.83;2.10;;;;;;;;;;5054718;28;20848;-69
2022/05/29 13:02:17;;;;;;;3.10;1.50;;;;;;;;;;5055283;28;20441;-69
2022/05/29 13:05:00;;;;;;;6.10;1.70;;;;;;;;;;5054188;28;20817;-68
2022/05/29 13:07:30;;;;;;;6.07;2.20;;;;;;;;;;5054280;28;20439;-69
2022/05/29 13:10:00;;;;;;;9.73;2.17;;;;;;;;;;5054145;28;20970;-68
2022/05/29 13:12:29;;;;;;;7.50;2.13;;;;;;;;;;5054773;28;20788;-68
2022/05/29 13:14:58;;;;;;;2.70;1.63;;;;;;;;;;5054312;28;20444;-69
2022/05/29 13:17:26;;;;;;;3.67;1.87;;;;;;;;;;5054305;28;20479;-68
2022/05/29 13:19:57;;;;;;;3.10;1.53;;;;;;;;;;5054056;28;20537;-69
2022/05/29 13:22:24;;;;;;;3.00;1.60;;;;;;;;;;5054421;28;20443;-68
2022/05/29 13:25:02;;;;;;;6.00;1.97;;;;;;;;;;5054130;28;20526;-68
2022/05/29 13:27:33;;;;;;;2.97;1.63;;;;;;;;;;5053901;28;20939;-69
2022/05/29 13:30:02;;;;;;;6.60;1.60;;;;;;;;;;5054179;28;20425;-68
2022/05/29 13:32:29;;;;;;;1.73;1.30;;;;;;;;;;5054175;28;20543;-69
2022/05/29 13:35:11;;;;;;;6.20;1.30;;;;;;;;;;5054105;28;20456;-68
2022/05/29 13:37:45;;;;;;;8.50;1.30;;;;;;;;;;5053649;28;20480;-70
2022/05/29 13:40:33;;;;;;;3.07;1.60;;;;;;;;;;5053892;28;20516;-69
2022/05/29 13:43:16;;;;;;;1.37;1.23;;;;;;;;;;5053537;28;20944;-68
2022/05/29 13:46:05;;;;;;;1.47;1.23;;;;;;;;;;5054067;28;20779;-68
2022/05/29 13:48:33;;;;;;;5.50;1.30;;;;;;;;;;5054103;28;20435;-67
2022/05/29 13:51:03;;;;;;;2.90;1.30;;;;;;;;;;5053533;28;20446;-68
2022/05/29 13:53:42;;;;;;;3.63;1.40;;;;;;;;;;5054079;28;20426;-68
2022/05/29 13:56:13;;;;;;;3.57;1.20;;;;;;;;;;5054373;28;20489;-71
2022/05/29 14:04:33;;;;;;;8.73;1.57;;;;;;;;;;5053167;28;20485;-68
2022/05/29 14:07:15;;;;;;;5.83;1.30;;;;;;;;;;5053115;28;20548;-68
2022/05/29 14:09:45;;;;;;;2.03;1.43;;;;;;;;;;5053360;28;20864;-69
2022/05/29 14:12:16;;;;;;;8.10;1.93;;;;;;;;;;5053739;28;20438;-68
2022/05/29 14:14:46;;;;;;;4.60;1.50;;;;;;;;;;5053414;28;20530;-68
2022/05/29 14:17:18;;;;;;;2.30;1.53;;;;;;;;;;5053202;28;20443;-68
2022/05/29 14:19:54;;;;;;;2.30;1.50;;;;;;;;;;5053190;28;20513;-68
2022/05/29 14:22:31;;;;;;;2.83;1.20;;;;;;;;;;5053549;28;20440;-68
2022/05/29 14:25:08;;;;;;;1.60;1.37;;;;;;;;;;5053136;28;20490;-68
2022/05/29 14:28:03;;;;;;;2.40;1.30;;;;;;;;;;5053608;28;20435;-68
2022/05/29 14:30:38;;;;;;;5.03;1.83;;;;;;;;;;5053097;28;20430;-68
2022/05/29 14:33:11;;;;;;;2.63;2.27;;;;;;;;;;5053391;28;21011;-68
2022/05/29 14:35:47;;;;;;;3.20;1.80;;;;;;;;;;5052649;28;20478;-68
2022/05/29 14:38:23;;;;;;;4.43;1.90;;;;;;;;;;5053233;28;20568;-68
2022/05/29 14:40:55;;;;;;;4.87;3.03;;;;;;;;;;5053292;28;20436;-68
2022/05/29 14:43:23;;;;;;;2.47;1.97;;;;;;;;;;5053289;28;20466;-68
2022/05/29 14:46:02;;;;;;;2.63;1.50;;;;;;;;;;5052790;28;20449;-68
2022/05/29 14:48:33;;;;;;;2.13;1.40;;;;;;;;;;5052845;28;20434;-68
2022/05/29 14:51:04;;;;;;;5.87;2.70;;;;;;;;;;5052695;28;20432;-68
2022/05/29 14:53:34;;;;;;;2.90;1.87;;;;;;;;;;5054138;28;20920;-68
2022/05/29 14:56:03;;;;;;;3.33;1.50;;;;;;;;;;5056994;28;20593;-69
2022/05/29 14:58:32;;;;;;;2.63;1.43;;;;;;;;;;5056879;28;20479;-67
2022/05/29 15:01:00;;;;;;;2.50;1.63;;;;;;;;;;5056374;28;20535;-69
2022/05/29 15:03:28;;;;;;;3.00;1.70;;;;;;;;;;5056797;28;20445;-69
2022/05/29 15:05:57;;;;;;;3.20;1.53;;;;;;;;;;5056165;28;20528;-68
2022/05/29 15:11:14;;;;;;;2.90;1.63;;;;;;;;;;5056520;28;20490;-68
2022/05/29 15:13:57;;;;;;;1.67;1.30;;;;;;;;;;5056816;28;20537;-68
2022/05/29 15:16:24;;;;;;;1.53;1.30;;;;;;;;;;5056888;28;20827;-68
2022/05/29 15:18:51;;;;;;;2.13;1.83;;;;;;;;;;5056418;28;20488;-68
2022/05/29 15:24:12;;;;;;;3.40;1.87;;;;;;;;;;5056566;28;20493;-68
2022/05/29 15:26:42;;;;;;;1.73;1.20;;;;;;;;;;5056279;28;20432;-68
2022/05/29 15:29:13;;;;;;;1.67;1.57;;;;;;;;;;5056871;28;20448;-69
2022/05/29 15:31:41;;;;;;;1.40;1.30;;;;;;;;;;5056267;28;20468;-68
2022/05/29 15:34:19;;;;;;;1.90;1.20;;;;;;;;;;5055717;28;20452;-68
2022/05/29 15:36:51;;;;;;;5.13;1.90;;;;;;;;;;5055925;28;20566;-68
2022/05/29 15:39:25;;;;;;;2.07;1.43;;;;;;;;;;5055956;28;20470;-69
2022/05/29 15:41:56;;;;;;;1.70;1.53;;;;;;;;;;5056222;28;20435;-68
2022/05/29 15:44:32;;;;;;;4.20;1.40;;;;;;;;;;5056154;28;20792;-69
2022/05/29 15:47:08;;;;;;;4.20;1.70;;;;;;;;;;5055881;28;20965;-68